createdAt,value
2018-07-15T00:00:18.428Z,2.63
2018-07-15T00:02:46.858Z,2.40
2018-07-15T00:05:15.361Z,2.50
2018-07-15T00:07:43.793Z,2.50
2018-07-15T00:10:12.280Z,2.83
2018-07-15T00:12:40.736Z,3.00
2018-07-15T00:15:09.175Z,2.90
2018-07-15T00:17:37.628Z,2.87
2018-07-15T00:20:06.066Z,3.13
2018-07-15T00:22:34.606Z,3.00
2018-07-15T00:25:03.024Z,3.13
2018-07-15T00:27:31.624Z,2.70
2018-07-15T00:30:00.077Z,3.00
2018-07-15T00:32:28.528Z,3.03
2018-07-15T00:34:56.940Z,2.93
2018-07-15T00:37:25.392Z,3.37
2018-07-15T00:39:53.829Z,3.00
2018-07-15T00:42:22.303Z,3.20
2018-07-15T00:44:50.713Z,3.20
2018-07-15T00:47:19.140Z,3.13
2018-07-15T00:49:47.552Z,3.20
2018-07-15T00:52:15.977Z,2.73
2018-07-15T00:54:44.400Z,3.50
2018-07-15T00:57:12.841Z,3.20
2018-07-15T00:59:41.274Z,3.20
2018-07-15T01:02:09.756Z,2.90
2018-07-15T01:04:38.172Z,3.50
2018-07-15T01:07:06.641Z,2.83
2018-07-15T01:09:35.162Z,2.90
2018-07-15T01:12:03.612Z,2.90
2018-07-15T01:14:32.025Z,2.93
2018-07-15T01:17:00.480Z,2.93
2018-07-15T01:19:28.933Z,2.57
2018-07-15T01:21:57.385Z,3.03
2018-07-15T01:24:25.797Z,3.53
2018-07-15T01:26:55.356Z,3.20
2018-07-15T01:29:23.776Z,3.37
2018-07-15T01:31:52.304Z,3.87
2018-07-15T01:34:22.084Z,3.60
2018-07-15T01:36:51.338Z,3.40
2018-07-15T01:39:19.904Z,3.93
2018-07-15T01:41:48.536Z,3.30
2018-07-15T01:44:17.001Z,3.03
2018-07-15T01:46:45.476Z,3.20
2018-07-15T01:49:13.893Z,3.00
2018-07-15T01:51:42.360Z,3.13
2018-07-15T01:54:10.821Z,3.20
2018-07-15T01:56:39.256Z,3.13
2018-07-15T01:59:07.693Z,3.40
2018-07-15T02:01:36.104Z,3.63
2018-07-15T02:04:04.552Z,3.50
2018-07-15T02:06:32.977Z,3.13
2018-07-15T02:09:01.398Z,3.87
2018-07-15T02:11:29.888Z,3.83
2018-07-15T02:13:58.348Z,4.00
2018-07-15T02:16:26.849Z,4.47
2018-07-15T02:18:55.268Z,5.13
2018-07-15T02:21:25.078Z,5.20
2018-07-15T02:23:53.500Z,5.03
2018-07-15T02:26:21.932Z,4.90
2018-07-15T02:28:50.388Z,4.63
2018-07-15T02:31:18.854Z,4.50
2018-07-15T02:33:47.289Z,4.73
2018-07-15T02:36:15.720Z,5.27
2018-07-15T02:38:44.149Z,4.93
2018-07-15T02:41:12.581Z,4.70
2018-07-15T02:43:41.035Z,4.23
2018-07-15T02:46:09.456Z,4.43
2018-07-15T02:48:37.904Z,4.83
2018-07-15T02:51:06.552Z,4.50
2018-07-15T02:53:34.993Z,4.40
2018-07-15T02:56:03.533Z,4.13
2018-07-15T02:58:31.989Z,5.30
2018-07-15T03:01:00.409Z,5.00
2018-07-15T03:03:28.915Z,4.30
2018-07-15T03:05:58.045Z,4.50
2018-07-15T03:08:26.632Z,4.70
2018-07-15T03:10:55.078Z,5.17
2018-07-15T03:13:23.585Z,5.87
2018-07-15T03:15:52.064Z,5.70
2018-07-15T03:18:20.548Z,5.93
2018-07-15T03:20:48.981Z,5.83
2018-07-15T03:23:17.425Z,6.00
2018-07-15T03:25:45.961Z,5.33
2018-07-15T03:28:14.386Z,5.33
2018-07-15T03:30:42.794Z,5.20
2018-07-15T03:33:11.246Z,4.87
2018-07-15T03:35:39.361Z,5.00
2018-07-15T03:38:07.876Z,4.50
2018-07-15T03:40:36.297Z,5.70
2018-07-15T03:43:04.751Z,5.20
2018-07-15T03:45:33.513Z,4.83
2018-07-15T03:48:01.965Z,5.90
2018-07-15T03:50:30.392Z,5.57
2018-07-15T03:52:58.840Z,5.00
2018-07-15T03:55:27.364Z,5.63
2018-07-15T03:57:55.825Z,5.60
2018-07-15T04:00:24.297Z,4.90
2018-07-15T04:02:52.724Z,5.30
2018-07-15T04:05:21.216Z,5.50
2018-07-15T04:07:49.663Z,5.30
2018-07-15T04:10:18.213Z,5.27
2018-07-15T04:12:46.637Z,5.77
2018-07-15T04:15:15.328Z,5.53
2018-07-15T04:17:43.781Z,5.33
2018-07-15T04:20:11.956Z,5.80
2018-07-15T04:22:40.364Z,5.17
2018-07-15T04:25:08.786Z,4.90
2018-07-15T04:27:37.233Z,4.97
2018-07-15T04:30:05.652Z,4.83
2018-07-15T04:32:34.105Z,4.40
2018-07-15T04:35:02.517Z,5.07
2018-07-15T04:37:31.189Z,4.60
2018-07-15T04:39:59.625Z,4.63
2018-07-15T04:42:28.094Z,4.83
2018-07-15T04:44:56.601Z,4.37
2018-07-15T04:47:25.044Z,4.90
2018-07-15T04:49:53.481Z,4.17
2018-07-15T04:52:21.909Z,4.07
2018-07-15T04:54:50.436Z,4.07
2018-07-15T04:57:18.853Z,4.17
2018-07-15T04:59:48.016Z,4.20
2018-07-15T05:02:16.446Z,4.37
2018-07-15T05:04:44.888Z,4.30
2018-07-15T05:07:13.317Z,3.87
2018-07-15T05:09:41.742Z,4.07
2018-07-15T05:12:10.168Z,3.57
2018-07-15T05:14:38.626Z,4.60
2018-07-15T05:17:07.053Z,3.93
2018-07-15T05:19:35.464Z,4.17
2018-07-15T05:22:04.017Z,3.93
2018-07-15T05:24:32.700Z,4.27
2018-07-15T05:27:01.137Z,4.07
2018-07-15T05:29:29.580Z,4.13
2018-07-15T05:31:58.046Z,4.97
2018-07-15T05:34:26.464Z,4.70
2018-07-15T05:36:54.905Z,4.70
2018-07-15T05:39:23.312Z,4.80
2018-07-15T05:41:51.735Z,4.93
2018-07-15T05:44:20.293Z,5.13
2018-07-15T05:46:48.657Z,4.80
2018-07-15T05:49:17.105Z,4.33
2018-07-15T05:51:45.581Z,4.67
2018-07-15T05:54:13.984Z,4.70
2018-07-15T05:56:42.436Z,4.53
2018-07-15T05:59:10.864Z,5.10
2018-07-15T06:01:39.277Z,4.70
2018-07-15T06:04:08.254Z,5.17
2018-07-15T06:06:36.668Z,5.47
2018-07-15T06:09:06.283Z,5.20
2018-07-15T06:11:34.748Z,4.43
2018-07-15T06:14:03.189Z,5.10
2018-07-15T06:16:31.637Z,5.33
2018-07-15T06:19:00.068Z,4.70
2018-07-15T06:21:28.516Z,5.23
2018-07-15T06:23:56.962Z,5.30
2018-07-15T06:26:25.425Z,5.13
2018-07-15T06:28:53.854Z,5.33
2018-07-15T06:31:22.300Z,5.57
2018-07-15T06:33:50.741Z,5.57
2018-07-15T06:36:19.192Z,4.73
2018-07-15T06:38:48.137Z,6.47
2018-07-15T06:41:16.589Z,5.87
2018-07-15T06:43:45.012Z,5.60
2018-07-15T06:46:13.568Z,5.73
2018-07-15T06:48:42.080Z,5.83
2018-07-15T06:51:10.611Z,5.67
2018-07-15T06:53:39.249Z,5.10
2018-07-15T06:56:07.986Z,5.50
2018-07-15T06:58:36.581Z,5.30
2018-07-15T07:01:05.017Z,5.90
2018-07-15T07:03:33.553Z,5.40
2018-07-15T07:06:01.984Z,5.17
2018-07-15T07:08:30.477Z,5.20
2018-07-15T07:10:58.913Z,5.53
2018-07-15T07:13:27.360Z,4.80
2018-07-15T07:15:55.841Z,5.23
2018-07-15T07:18:24.278Z,4.90
2018-07-15T07:20:52.810Z,5.20
2018-07-15T07:23:21.252Z,5.87
2018-07-15T07:25:49.765Z,5.77
2018-07-15T07:28:18.221Z,6.43
2018-07-15T07:30:46.709Z,7.07
2018-07-15T07:33:15.153Z,6.13
2018-07-15T07:35:43.609Z,6.57
2018-07-15T07:38:12.050Z,5.67
2018-07-15T07:40:40.492Z,5.50
2018-07-15T07:43:08.953Z,5.80
2018-07-15T07:45:38.368Z,5.53
2018-07-15T07:48:06.868Z,6.97
2018-07-15T07:50:35.302Z,5.87
2018-07-15T07:53:03.785Z,6.33
2018-07-15T07:55:32.207Z,5.73
2018-07-15T07:58:00.628Z,6.07
2018-07-15T08:00:29.100Z,6.63
2018-07-15T08:02:57.238Z,6.90
2018-07-15T08:05:25.644Z,7.93
2018-07-15T08:07:54.061Z,5.83
2018-07-15T08:10:22.521Z,5.93
2018-07-15T08:12:51.025Z,5.67
2018-07-15T08:15:19.540Z,4.73
2018-07-15T08:17:47.920Z,4.20
2018-07-15T08:20:16.388Z,3.90
2018-07-15T08:22:44.825Z,3.43
2018-07-15T08:25:13.316Z,3.70
2018-07-15T08:27:41.760Z,3.50
2018-07-15T08:30:21.485Z,4.63
2018-07-15T08:32:49.920Z,3.20
2018-07-15T08:35:18.328Z,3.60
2018-07-15T08:37:46.760Z,2.90
2018-07-15T08:40:15.193Z,3.33
2018-07-15T08:42:43.872Z,3.20
2018-07-15T08:45:12.311Z,3.30
2018-07-15T08:47:40.839Z,3.60
2018-07-15T08:50:09.252Z,3.40
2018-07-15T08:52:37.688Z,3.23
2018-07-15T08:55:06.195Z,3.23
2018-07-15T08:57:35.008Z,3.93
2018-07-15T09:00:03.517Z,3.97
2018-07-15T09:02:31.973Z,3.60
2018-07-15T09:05:00.384Z,3.53
2018-07-15T09:07:28.826Z,3.67
2018-07-15T09:09:57.256Z,3.77
2018-07-15T09:12:25.812Z,3.97
2018-07-15T09:14:54.421Z,4.17
2018-07-15T09:17:22.976Z,3.80
2018-07-15T09:19:51.409Z,4.27
2018-07-15T09:22:20.041Z,3.80
2018-07-15T09:24:48.488Z,4.27
2018-07-15T09:27:16.940Z,3.53
2018-07-15T09:29:45.400Z,3.43
2018-07-15T09:32:13.844Z,3.20
2018-07-15T09:34:42.299Z,3.57
2018-07-15T09:37:10.748Z,2.97
2018-07-15T09:39:39.178Z,2.37
2018-07-15T09:42:07.625Z,2.60
2018-07-15T09:44:36.053Z,3.07
2018-07-15T09:47:04.978Z,2.70
2018-07-15T09:49:33.416Z,2.77
2018-07-15T09:52:01.849Z,2.27
2018-07-15T09:54:30.281Z,3.10
2018-07-15T09:56:58.709Z,2.60
2018-07-15T09:59:27.132Z,2.93
2018-07-15T10:01:55.557Z,3.10
2018-07-15T10:04:23.984Z,2.40
2018-07-15T10:06:52.488Z,2.40
2018-07-15T10:09:20.924Z,2.40
2018-07-15T10:11:49.538Z,2.70
2018-07-15T10:14:18.140Z,2.63
2018-07-15T10:16:46.560Z,2.40
2018-07-15T10:19:15.032Z,2.50
2018-07-15T10:21:43.444Z,2.47
2018-07-15T10:24:11.920Z,2.30
2018-07-15T10:26:40.442Z,2.60
2018-07-15T10:29:11.797Z,2.00
2018-07-15T10:31:40.341Z,2.10
2018-07-15T10:34:08.805Z,2.20
2018-07-15T10:36:37.312Z,1.90
2018-07-15T10:39:06.338Z,2.47
2018-07-15T10:41:34.981Z,2.10
2018-07-15T10:44:03.446Z,1.97
2018-07-15T10:46:31.892Z,2.03
2018-07-15T10:49:00.300Z,2.40
2018-07-15T10:51:28.753Z,2.70
2018-07-15T10:53:57.441Z,2.30
2018-07-15T10:56:25.908Z,2.10
2018-07-15T10:58:54.328Z,2.07
2018-07-15T11:01:22.777Z,2.00
2018-07-15T11:03:51.196Z,1.97
2018-07-15T11:06:19.794Z,2.20
2018-07-15T11:08:48.216Z,2.37
2018-07-15T11:11:16.686Z,2.03
2018-07-15T11:13:45.164Z,2.27
2018-07-15T11:16:13.628Z,2.27
2018-07-15T11:18:42.148Z,1.90
2018-07-15T11:21:10.600Z,2.30
2018-07-15T11:23:39.182Z,2.10
2018-07-15T11:26:07.681Z,2.30
2018-07-15T11:28:36.231Z,1.87
2018-07-15T11:31:04.816Z,2.30
2018-07-15T11:33:33.288Z,2.30
2018-07-15T11:36:01.444Z,2.30
2018-07-15T11:38:30.029Z,2.20
2018-07-15T11:40:58.496Z,1.90
2018-07-15T11:43:27.108Z,2.00
2018-07-15T11:45:55.561Z,1.70
2018-07-15T11:48:24.025Z,1.63
2018-07-15T11:50:52.548Z,1.80
2018-07-15T11:53:20.970Z,1.63
2018-07-15T11:55:49.412Z,1.70
2018-07-15T11:58:17.845Z,1.93
2018-07-15T12:00:46.381Z,2.03
2018-07-15T12:03:14.832Z,2.10
2018-07-15T12:05:43.025Z,1.90
2018-07-15T12:08:11.438Z,1.90
2018-07-15T12:10:39.976Z,2.13
2018-07-15T12:13:08.517Z,2.27
2018-07-15T12:15:36.996Z,1.97
2018-07-15T12:18:05.425Z,2.17
2018-07-15T12:20:33.908Z,2.40
2018-07-15T12:23:02.350Z,1.70
2018-07-15T12:25:30.880Z,1.87
2018-07-15T12:27:59.368Z,2.07
2018-07-15T12:30:27.828Z,1.90
2018-07-15T12:32:56.264Z,1.70
2018-07-15T12:35:24.710Z,1.50
2018-07-15T12:37:53.132Z,1.50
2018-07-15T12:40:21.561Z,1.40
2018-07-15T12:42:50.001Z,1.97
2018-07-15T12:45:18.416Z,1.80
2018-07-15T12:47:46.844Z,1.60
2018-07-15T12:50:15.272Z,1.40
2018-07-15T12:52:43.722Z,1.57
2018-07-15T12:55:12.193Z,1.50
2018-07-15T12:57:40.652Z,1.33
2018-07-15T13:00:09.145Z,1.33
2018-07-15T13:02:37.598Z,1.30
2018-07-15T13:05:06.104Z,1.40
2018-07-15T13:07:34.561Z,1.60
2018-07-15T13:10:03.053Z,1.40
2018-07-15T13:12:31.508Z,1.30
2018-07-15T13:14:59.964Z,1.53
2018-07-15T13:17:28.481Z,1.40
2018-07-15T13:19:56.944Z,1.20
2018-07-15T13:22:25.393Z,1.50
2018-07-15T13:24:53.809Z,1.40
2018-07-15T13:27:22.221Z,1.23
2018-07-15T13:29:50.691Z,1.40
2018-07-15T13:32:19.248Z,1.23
2018-07-15T13:34:47.792Z,1.60
2018-07-15T13:37:16.416Z,1.40
2018-07-15T13:39:44.888Z,1.57
2018-07-15T13:42:13.393Z,1.10
2018-07-15T13:44:41.824Z,1.40
2018-07-15T13:47:10.244Z,1.73
2018-07-15T13:49:38.736Z,1.37
2018-07-15T13:52:07.181Z,1.43
2018-07-15T13:54:35.648Z,1.50
2018-07-15T13:57:04.157Z,1.33
2018-07-15T13:59:32.639Z,1.37
2018-07-15T14:02:01.073Z,1.37
2018-07-15T14:04:29.513Z,1.60
2018-07-15T14:06:57.953Z,1.20
2018-07-15T14:09:26.413Z,1.67
2018-07-15T14:11:54.832Z,1.40
2018-07-15T14:14:23.300Z,1.57
2018-07-15T14:16:51.753Z,1.67
2018-07-15T14:19:20.269Z,1.43
2018-07-15T14:21:48.701Z,1.40
2018-07-15T14:24:17.200Z,2.23
2018-07-15T14:26:45.655Z,1.90
2018-07-15T14:29:14.076Z,1.83
2018-07-15T14:31:42.521Z,2.20
2018-07-15T14:34:10.941Z,1.50
2018-07-15T14:36:39.369Z,2.27
2018-07-15T14:39:07.869Z,1.50
2018-07-15T14:41:36.328Z,1.50
2018-07-15T14:44:04.830Z,1.43
2018-07-15T14:46:33.664Z,1.30
2018-07-15T14:49:02.389Z,1.63
2018-07-15T14:51:30.950Z,1.50
2018-07-15T14:53:59.385Z,2.77
2018-07-15T14:56:27.836Z,1.40
2018-07-15T14:58:56.296Z,1.53
2018-07-15T15:01:24.723Z,1.47
2018-07-15T15:03:53.180Z,1.43
2018-07-15T15:06:21.669Z,1.60
2018-07-15T15:08:50.166Z,1.20
2018-07-15T15:11:18.688Z,1.33
2018-07-15T15:13:47.241Z,1.17
2018-07-15T15:16:16.033Z,1.73
2018-07-15T15:18:44.523Z,1.40
2018-07-15T15:21:13.061Z,1.20
2018-07-15T15:23:41.593Z,1.60
2018-07-15T15:26:10.145Z,1.77
2018-07-15T15:28:38.608Z,1.30
2018-07-15T15:31:07.064Z,1.60
2018-07-15T15:33:35.644Z,1.90
2018-07-15T15:36:04.063Z,1.77
2018-07-15T15:38:32.480Z,1.50
2018-07-15T15:41:00.918Z,1.60
2018-07-15T15:43:29.396Z,1.67
2018-07-15T15:46:00.909Z,1.40
2018-07-15T15:48:29.385Z,2.40
2018-07-15T15:50:57.852Z,1.60
2018-07-15T15:53:26.296Z,2.30
2018-07-15T15:55:54.727Z,1.40
2018-07-15T15:58:23.193Z,1.70
2018-07-15T16:00:51.753Z,2.50
2018-07-15T16:03:20.223Z,1.90
2018-07-15T16:05:48.629Z,2.40
2018-07-15T16:08:17.084Z,1.97
2018-07-15T16:10:45.545Z,1.37
2018-07-15T16:13:13.985Z,1.50
2018-07-15T16:15:42.437Z,1.70
2018-07-15T16:18:10.988Z,1.37
2018-07-15T16:20:39.944Z,1.30
2018-07-15T16:23:08.755Z,1.80
2018-07-15T16:25:37.195Z,1.50
2018-07-15T16:28:06.096Z,1.40
2018-07-15T16:30:34.541Z,1.60
2018-07-15T16:33:02.981Z,1.37
2018-07-15T16:35:31.453Z,1.50
2018-07-15T16:37:59.873Z,1.50
2018-07-15T16:40:28.314Z,1.20
2018-07-15T16:42:56.734Z,1.30
2018-07-15T16:45:25.272Z,1.17
2018-07-15T16:47:53.688Z,1.40
2018-07-15T16:50:21.856Z,1.20
2018-07-15T16:52:50.316Z,1.30
2018-07-15T16:55:18.748Z,1.10
2018-07-15T16:57:47.164Z,1.20
2018-07-15T17:00:15.620Z,1.73
2018-07-15T17:02:44.036Z,1.50
2018-07-15T17:05:12.492Z,1.53
2018-07-15T17:07:40.938Z,1.57
2018-07-15T17:10:09.436Z,1.37
2018-07-15T17:12:37.877Z,1.10
2018-07-15T17:15:06.522Z,1.30
2018-07-15T17:17:34.957Z,1.37
2018-07-15T17:20:03.433Z,1.80
2018-07-15T17:22:31.865Z,1.40
2018-07-15T17:25:00.324Z,1.20
2018-07-15T17:27:28.873Z,1.30
2018-07-15T17:29:57.278Z,1.10
2018-07-15T17:32:25.712Z,1.27
2018-07-15T17:34:54.138Z,1.20
2018-07-15T17:37:22.560Z,1.40
2018-07-15T17:39:50.980Z,1.10
2018-07-15T17:42:19.489Z,1.40
2018-07-15T17:44:47.921Z,1.30
2018-07-15T17:47:16.352Z,1.20
2018-07-15T17:49:44.792Z,1.10
2018-07-15T17:52:13.205Z,0.90
2018-07-15T17:54:41.692Z,1.10
2018-07-15T17:57:10.145Z,0.80
2018-07-15T17:59:38.577Z,1.00
2018-07-15T18:02:07.077Z,1.20
2018-07-15T18:04:35.557Z,1.10
2018-07-15T18:07:03.964Z,0.80
2018-07-15T18:09:32.403Z,1.00
2018-07-15T18:12:00.836Z,1.00
2018-07-15T18:14:29.288Z,1.20
2018-07-15T18:16:57.753Z,1.20
2018-07-15T18:19:26.216Z,1.00
2018-07-15T18:21:54.711Z,1.47
2018-07-15T18:24:23.121Z,1.17
2018-07-15T18:26:51.592Z,1.13
2018-07-15T18:29:20.015Z,1.57
2018-07-15T18:31:48.469Z,1.17
2018-07-15T18:34:16.900Z,1.20
2018-07-15T18:36:45.345Z,1.23
2018-07-15T18:39:13.849Z,1.23
2018-07-15T18:41:42.232Z,1.40
2018-07-15T18:44:10.669Z,1.20
2018-07-15T18:46:39.101Z,1.00
2018-07-15T18:49:07.544Z,1.50
2018-07-15T18:51:36.038Z,1.30
2018-07-15T18:54:04.464Z,1.30
2018-07-15T18:56:32.904Z,1.30
2018-07-15T18:59:01.387Z,1.17
2018-07-15T19:01:29.490Z,1.00
2018-07-15T19:03:57.978Z,1.10
2018-07-15T19:06:26.444Z,1.20
2018-07-15T19:08:54.901Z,1.20
2018-07-15T19:11:23.369Z,1.07
2018-07-15T19:13:51.802Z,1.33
2018-07-15T19:16:20.252Z,1.10
2018-07-15T19:18:48.708Z,1.27
2018-07-15T19:21:17.152Z,1.30
2018-07-15T19:23:45.633Z,1.00
2018-07-15T19:26:14.041Z,1.20
2018-07-15T19:28:42.501Z,1.20
2018-07-15T19:31:10.948Z,1.30
2018-07-15T19:33:39.453Z,1.10
2018-07-15T19:36:07.912Z,1.20
2018-07-15T19:38:36.368Z,1.00
2018-07-15T19:41:04.785Z,1.13
2018-07-15T19:43:33.574Z,1.00
2018-07-15T19:46:02.019Z,1.03
2018-07-15T19:48:30.646Z,1.13
2018-07-15T19:50:59.056Z,1.00
2018-07-15T19:53:27.548Z,1.07
2018-07-15T19:55:55.992Z,0.97
2018-07-15T19:58:24.480Z,0.90
2018-07-15T20:00:52.961Z,0.93
2018-07-15T20:03:21.398Z,1.10
2018-07-15T20:05:49.833Z,1.17
2018-07-15T20:08:18.256Z,1.20
2018-07-15T20:10:46.830Z,1.07
2018-07-15T20:13:15.373Z,1.30
2018-07-15T20:15:43.834Z,1.20
2018-07-15T20:18:12.357Z,1.00
2018-07-15T20:20:40.845Z,1.27
2018-07-15T20:23:09.277Z,1.30
2018-07-15T20:25:37.749Z,1.30
2018-07-15T20:28:06.272Z,1.30
2018-07-15T20:30:34.749Z,1.20
2018-07-15T20:33:03.180Z,1.60
2018-07-15T20:35:31.358Z,1.20
2018-07-15T20:37:59.462Z,1.23
2018-07-15T20:40:27.968Z,1.50
2018-07-15T20:42:56.421Z,1.40
2018-07-15T20:45:24.958Z,1.07
2018-07-15T20:47:53.376Z,1.27
2018-07-15T20:50:21.836Z,1.10
2018-07-15T20:52:50.261Z,1.20
2018-07-15T20:55:18.873Z,1.30
2018-07-15T20:57:46.984Z,1.30
2018-07-15T21:00:15.428Z,1.10
2018-07-15T21:02:43.950Z,1.17
2018-07-15T21:05:12.293Z,1.47
2018-07-15T21:07:40.713Z,2.53
2018-07-15T21:10:09.161Z,2.20
2018-07-15T21:12:37.569Z,1.53
2018-07-15T21:15:06.053Z,1.77
2018-07-15T21:17:34.489Z,1.70
2018-07-15T21:20:02.977Z,1.50
2018-07-15T21:22:31.438Z,1.60
2018-07-15T21:24:59.857Z,1.50
2018-07-15T21:27:28.492Z,1.00
2018-07-15T21:29:56.905Z,1.33
2018-07-15T21:32:25.339Z,1.20
2018-07-15T21:34:53.908Z,1.30
2018-07-15T21:37:22.511Z,1.30
2018-07-15T21:39:50.929Z,0.90
2018-07-15T21:42:19.373Z,1.10
2018-07-15T21:44:47.896Z,0.90
2018-07-15T21:47:16.328Z,1.10
2018-07-15T21:49:44.769Z,1.30
2018-07-15T21:52:13.217Z,1.50
2018-07-15T21:54:41.649Z,1.10
2018-07-15T21:57:10.081Z,1.23
2018-07-15T21:59:38.515Z,1.23
2018-07-15T22:02:07.185Z,1.10
2018-07-15T22:04:35.866Z,1.10
2018-07-15T22:07:15.542Z,1.10
2018-07-15T22:09:55.813Z,1.00
2018-07-15T22:12:24.452Z,1.10
2018-07-15T22:14:53.049Z,1.00
2018-07-15T22:17:21.917Z,1.27
2018-07-15T22:19:52.668Z,1.17
2018-07-15T22:22:21.092Z,0.97
2018-07-15T22:24:49.528Z,1.00
2018-07-15T22:27:17.998Z,1.03
2018-07-15T22:29:46.445Z,1.20
2018-07-15T22:32:14.904Z,1.40
2018-07-15T22:34:43.316Z,0.90
2018-07-15T22:37:11.757Z,0.80
2018-07-15T22:39:40.172Z,0.90
2018-07-15T22:42:08.659Z,0.70
2018-07-15T22:44:37.089Z,0.90
2018-07-15T22:47:05.580Z,0.90
2018-07-15T22:49:34.001Z,1.07
2018-07-15T22:52:02.472Z,1.20
2018-07-15T22:54:30.876Z,1.10
2018-07-15T22:56:59.329Z,1.10
2018-07-15T22:59:27.768Z,1.10
2018-07-15T23:01:56.206Z,1.20
2018-07-15T23:04:35.877Z,1.03
2018-07-15T23:07:04.292Z,1.60
2018-07-15T23:09:32.875Z,1.20
2018-07-15T23:12:01.282Z,1.20
2018-07-15T23:14:30.240Z,1.10
2018-07-15T23:16:58.660Z,1.10
2018-07-15T23:19:27.085Z,1.20
2018-07-15T23:21:55.525Z,1.23
2018-07-15T23:24:23.954Z,1.13
2018-07-15T23:26:52.392Z,1.40
2018-07-15T23:29:22.473Z,1.37
2018-07-15T23:31:50.904Z,1.50
2018-07-15T23:34:19.337Z,1.17
2018-07-15T23:36:47.774Z,1.20
2018-07-15T23:39:16.186Z,1.73
2018-07-15T23:41:44.655Z,1.10
2018-07-15T23:44:13.077Z,1.27
2018-07-15T23:46:41.184Z,1.40
2018-07-15T23:49:09.717Z,1.13
2018-07-15T23:51:38.141Z,1.23
2018-07-15T23:54:06.568Z,1.23
2018-07-15T23:56:35.000Z,1.33
2018-07-15T23:59:03.501Z,1.17
